createdAt,value
2022-09-21T00:01:45.514Z,0.98
2022-09-21T00:03:48.503Z,2.17
2022-09-21T00:05:50.589Z,2.38
2022-09-21T00:07:52.905Z,1.17
2022-09-21T00:09:54.995Z,3.63
2022-09-21T00:11:58.343Z,1.52
2022-09-21T00:14:07.690Z,1.40
2022-09-21T00:16:10.074Z,1.17
2022-09-21T00:18:12.702Z,0.90
2022-09-21T00:20:16.204Z,3.60
2022-09-21T00:22:18.731Z,3.33
2022-09-21T00:24:20.902Z,2.08
2022-09-21T00:26:27.049Z,1.10
2022-09-21T00:28:30.361Z,1.50
2022-09-21T00:30:32.529Z,0.93
2022-09-21T00:32:37.110Z,2.33
2022-09-21T00:34:39.124Z,5.13
2022-09-21T00:36:41.467Z,2.67
2022-09-21T00:38:47.449Z,1.08
2022-09-21T00:40:49.753Z,0.75
2022-09-21T00:42:51.973Z,0.90
2022-09-21T00:44:54.788Z,0.80
2022-09-21T00:47:03.402Z,1.05
2022-09-21T00:49:06.123Z,1.60
2022-09-21T00:51:09.389Z,1.33
2022-09-21T00:53:11.864Z,1.38
2022-09-21T00:55:31.300Z,1.42
2022-09-21T00:57:35.693Z,0.70
2022-09-21T00:59:39.974Z,1.40
2022-09-21T01:01:43.014Z,0.70
2022-09-21T01:03:47.507Z,0.50
2022-09-21T01:05:49.538Z,2.47
2022-09-21T01:07:51.929Z,1.65
2022-09-21T01:10:02.743Z,2.20
2022-09-21T01:12:34.714Z,0.60
2022-09-21T01:15:07.729Z,1.10
2022-09-21T01:17:18.912Z,0.55
2022-09-21T01:19:48.819Z,1.80
2022-09-21T01:22:20.373Z,2.60
2022-09-21T01:24:57.714Z,1.98
2022-09-21T01:27:17.182Z,0.82
2022-09-21T01:29:33.937Z,1.95
2022-09-21T01:31:45.709Z,4.15
2022-09-21T01:33:53.384Z,5.15
2022-09-21T01:36:06.636Z,6.50
2022-09-21T01:38:18.838Z,4.88
2022-09-21T01:40:28.445Z,8.73
2022-09-21T01:42:34.777Z,5.78
2022-09-21T01:44:40.080Z,8.55
2022-09-21T01:46:42.760Z,6.72
2022-09-21T01:48:50.444Z,8.50
2022-09-21T01:50:56.161Z,6.18
2022-09-21T01:53:23.999Z,3.72
2022-09-21T01:55:40.494Z,5.00
2022-09-21T01:57:49.062Z,1.42
2022-09-21T01:59:54.533Z,2.72
2022-09-21T02:02:01.001Z,1.05
2022-09-21T02:04:09.882Z,1.48
2022-09-21T02:06:14.358Z,4.45
2022-09-21T02:08:16.768Z,1.90
2022-09-21T02:10:32.965Z,0.65
2022-09-21T02:12:35.023Z,3.03
2022-09-21T02:14:39.127Z,1.67
2022-09-21T02:17:24.954Z,1.48
2022-09-21T02:19:51.667Z,0.85
2022-09-21T02:22:09.183Z,2.15
2022-09-21T02:24:23.891Z,2.30
2022-09-21T02:26:49.588Z,3.42
2022-09-21T02:29:02.002Z,2.55
2022-09-21T02:31:15.583Z,3.95
2022-09-21T02:33:25.871Z,1.67
2022-09-21T02:35:51.357Z,2.53
2022-09-21T02:38:02.615Z,2.70
2022-09-21T02:40:23.971Z,3.38
2022-09-21T02:42:31.380Z,3.22
2022-09-21T02:44:59.541Z,4.18
2022-09-21T02:47:23.004Z,4.63
2022-09-21T02:49:31.813Z,5.13
2022-09-21T02:51:40.579Z,5.43
2022-09-21T02:53:44.892Z,5.63
2022-09-21T02:55:52.041Z,4.65
2022-09-21T02:57:59.540Z,2.88
2022-09-21T03:00:02.214Z,3.50
2022-09-21T03:02:05.786Z,1.60
2022-09-21T03:04:09.940Z,1.83
2022-09-21T03:06:12.221Z,1.55
2022-09-21T03:08:18.018Z,4.00
2022-09-21T03:10:20.542Z,4.15
2022-09-21T03:12:22.920Z,4.25
2022-09-21T03:14:25.095Z,13.68
2022-09-21T03:16:27.256Z,16.10
2022-09-21T03:18:30.460Z,14.82
2022-09-21T03:20:33.869Z,12.55
2022-09-21T03:22:35.946Z,18.25
2022-09-21T03:24:46.841Z,13.65
2022-09-21T03:26:49.011Z,10.02
2022-09-21T03:28:54.935Z,11.50
2022-09-21T03:30:57.404Z,4.68
2022-09-21T03:33:02.137Z,6.30
2022-09-21T03:35:05.079Z,1.38
2022-09-21T03:37:11.286Z,1.40
2022-09-21T03:39:13.418Z,1.45
2022-09-21T03:41:15.507Z,1.05
2022-09-21T03:43:18.514Z,0.90
2022-09-21T03:45:24.974Z,2.42
2022-09-21T03:47:29.795Z,1.48
2022-09-21T03:49:32.536Z,3.22
2022-09-21T03:51:34.435Z,0.88
2022-09-21T03:53:36.476Z,2.47
2022-09-21T03:55:39.223Z,1.00
2022-09-21T03:57:41.429Z,1.52
2022-09-21T03:59:43.716Z,1.20
2022-09-21T04:01:45.872Z,2.80
2022-09-21T04:03:48.095Z,3.85
2022-09-21T04:05:50.504Z,2.08
2022-09-21T04:07:55.554Z,1.98
2022-09-21T04:09:57.762Z,8.68
2022-09-21T04:12:00.299Z,13.35
2022-09-21T04:14:02.449Z,14.68
2022-09-21T04:16:05.202Z,35.97
2022-09-21T04:18:08.516Z,30.30
2022-09-21T04:20:10.713Z,53.60
2022-09-21T04:22:14.824Z,57.30
2022-09-21T04:24:19.723Z,40.58
2022-09-21T04:26:24.794Z,39.38
2022-09-21T04:28:26.935Z,23.92
2022-09-21T04:30:32.171Z,18.63
2022-09-21T04:32:37.644Z,15.97
2022-09-21T04:34:39.994Z,13.20
2022-09-21T04:36:42.012Z,12.00
2022-09-21T04:38:44.353Z,10.80
2022-09-21T04:40:55.242Z,12.93
2022-09-21T04:42:58.136Z,15.70
2022-09-21T04:45:00.612Z,12.37
2022-09-21T04:47:02.747Z,11.38
2022-09-21T04:49:05.055Z,10.63
2022-09-21T04:51:08.836Z,7.97
2022-09-21T04:53:11.189Z,6.53
2022-09-21T04:55:13.523Z,9.35
2022-09-21T04:57:15.655Z,20.00
2022-09-21T04:59:17.686Z,20.77
2022-09-21T05:01:22.455Z,26.85
2022-09-21T05:03:25.766Z,26.65
2022-09-21T05:05:28.037Z,19.65
2022-09-21T05:07:30.478Z,20.83
2022-09-21T05:09:51.018Z,22.23
2022-09-21T05:11:53.155Z,25.58
2022-09-21T05:13:55.307Z,15.57
2022-09-21T05:15:57.375Z,26.90
2022-09-21T05:17:59.419Z,25.17
2022-09-21T05:20:01.558Z,26.88
2022-09-21T05:22:03.772Z,16.52
2022-09-21T05:24:06.080Z,8.27
2022-09-21T05:26:08.375Z,8.05
2022-09-21T05:28:11.058Z,24.98
2022-09-21T05:30:13.998Z,19.85
2022-09-21T05:32:36.128Z,16.33
2022-09-21T05:34:40.991Z,18.40
2022-09-21T05:37:03.680Z,16.10
2022-09-21T05:39:07.141Z,16.55
2022-09-21T05:41:10.270Z,14.55
2022-09-21T05:43:12.845Z,11.73
2022-09-21T05:45:17.034Z,8.90
2022-09-21T05:47:56.717Z,7.82
2022-09-21T05:50:20.640Z,11.30
2022-09-21T05:52:50.899Z,7.28
2022-09-21T05:55:07.108Z,9.85
2022-09-21T05:57:37.731Z,6.20
2022-09-21T05:59:55.903Z,4.65
2022-09-21T06:02:05.297Z,4.63
2022-09-21T06:04:11.614Z,3.50
2022-09-21T06:06:13.601Z,4.72
2022-09-21T06:08:15.668Z,2.97
2022-09-21T06:10:18.260Z,6.50
2022-09-21T06:12:20.466Z,4.28
2022-09-21T06:14:25.745Z,7.10
2022-09-21T06:16:27.823Z,5.53
2022-09-21T06:18:30.636Z,5.10
2022-09-21T06:20:33.463Z,2.97
2022-09-21T06:22:35.956Z,2.30
2022-09-21T06:24:38.078Z,3.22
2022-09-21T06:26:40.478Z,2.50
2022-09-21T06:28:42.677Z,10.77
2022-09-21T06:30:50.800Z,18.02
2022-09-21T06:32:52.899Z,15.57
2022-09-21T06:34:55.155Z,9.18
2022-09-21T06:36:59.372Z,7.53
2022-09-21T06:39:01.655Z,10.15
2022-09-21T06:41:04.840Z,54.08
2022-09-21T06:43:06.773Z,56.47
2022-09-21T06:45:09.196Z,34.72
2022-09-21T06:47:11.866Z,19.60
2022-09-21T06:49:14.054Z,21.55
2022-09-21T06:51:16.451Z,17.48
2022-09-21T06:53:18.559Z,13.63
2022-09-21T06:55:21.144Z,10.27
2022-09-21T06:57:23.957Z,8.63
2022-09-21T06:59:26.072Z,8.90
2022-09-21T07:01:28.505Z,12.43
2022-09-21T07:03:33.955Z,13.68
2022-09-21T07:05:36.203Z,12.35
2022-09-21T07:07:38.518Z,11.10
2022-09-21T07:12:03.746Z,11.15
2022-09-21T07:14:06.401Z,13.80
2022-09-21T07:16:10.380Z,9.07
2022-09-21T07:18:13.879Z,8.77
2022-09-21T07:20:16.384Z,6.43
2022-09-21T07:22:18.647Z,7.13
2022-09-21T07:24:20.965Z,6.03
2022-09-21T07:26:25.738Z,9.20
2022-09-21T07:28:27.893Z,8.52
2022-09-21T07:30:30.039Z,6.53
2022-09-21T07:32:32.601Z,8.05
2022-09-21T07:34:37.332Z,10.10
2022-09-21T07:36:39.679Z,18.83
2022-09-21T07:38:44.521Z,11.10
2022-09-21T07:40:47.004Z,9.60
2022-09-21T07:42:49.230Z,6.07
2022-09-21T07:45:03.299Z,4.57
2022-09-21T07:47:06.600Z,4.38
2022-09-21T07:49:08.904Z,4.82
2022-09-21T07:51:14.119Z,4.25
2022-09-21T07:53:17.572Z,4.72
2022-09-21T07:55:19.638Z,6.45
2022-09-21T07:57:40.846Z,4.25
2022-09-21T07:59:43.089Z,5.00
2022-09-21T08:01:45.359Z,4.32
2022-09-21T08:03:56.283Z,6.00
2022-09-21T08:05:59.910Z,4.28
2022-09-21T08:08:02.726Z,4.75
2022-09-21T08:10:08.131Z,4.97
2022-09-21T08:12:11.393Z,10.25
2022-09-21T08:14:26.146Z,8.68
2022-09-21T08:16:30.842Z,8.77
2022-09-21T08:18:37.177Z,7.60
2022-09-21T08:20:39.330Z,7.88
2022-09-21T08:22:42.736Z,8.77
2022-09-21T08:24:46.466Z,10.43
2022-09-21T08:26:59.555Z,9.50
2022-09-21T08:29:02.901Z,8.75
2022-09-21T08:31:10.515Z,7.43
2022-09-21T08:33:13.300Z,5.20
2022-09-21T08:35:19.180Z,4.85
2022-09-21T08:37:22.163Z,4.93
2022-09-21T08:39:24.741Z,6.22
2022-09-21T08:41:54.580Z,6.85
2022-09-21T08:44:17.639Z,9.18
2022-09-21T08:46:24.010Z,5.93
2022-09-21T08:48:36.807Z,5.95
2022-09-21T08:50:46.850Z,9.82
2022-09-21T08:52:54.677Z,5.85
2022-09-21T08:55:19.967Z,7.47
2022-09-21T08:57:31.562Z,6.10
2022-09-21T08:59:35.405Z,6.40
2022-09-21T09:02:06.172Z,7.63
2022-09-21T09:04:38.566Z,7.20
2022-09-21T09:07:15.585Z,6.38
2022-09-21T09:09:45.778Z,5.88
2022-09-21T09:12:21.583Z,5.55
2022-09-21T09:14:43.817Z,5.70
2022-09-21T09:17:10.714Z,5.43
2022-09-21T09:19:42.027Z,17.08
2022-09-21T09:21:45.400Z,12.63
2022-09-21T09:23:54.557Z,10.15
2022-09-21T09:26:06.585Z,6.53
2022-09-21T09:28:33.320Z,22.35
2022-09-21T09:30:36.499Z,23.20
2022-09-21T09:32:38.504Z,11.55
2022-09-21T09:34:46.172Z,6.72
2022-09-21T09:36:58.899Z,5.38
2022-09-21T09:39:13.040Z,5.22
2022-09-21T09:41:46.064Z,4.40
2022-09-21T09:44:08.245Z,6.95
2022-09-21T09:46:43.320Z,3.20
2022-09-21T09:49:19.229Z,6.78
2022-09-21T09:51:21.789Z,6.03
2022-09-21T09:53:26.572Z,4.25
2022-09-21T09:55:44.013Z,6.38
2022-09-21T09:57:47.062Z,6.03
2022-09-21T09:59:55.594Z,6.35
2022-09-21T10:02:07.297Z,6.65
2022-09-21T10:04:11.876Z,4.57
2022-09-21T10:06:31.685Z,3.88
2022-09-21T10:08:36.692Z,5.45
2022-09-21T10:10:41.697Z,4.10
2022-09-21T10:12:47.140Z,4.35
2022-09-21T10:14:55.404Z,6.88
2022-09-21T10:17:05.769Z,7.68
2022-09-21T10:19:17.363Z,8.40
2022-09-21T10:21:20.188Z,9.82
2022-09-21T10:23:23.208Z,10.30
2022-09-21T10:25:25.643Z,4.57
2022-09-21T10:27:33.769Z,3.65
2022-09-21T10:29:42.924Z,5.13
2022-09-21T10:32:03.484Z,5.22
2022-09-21T10:34:25.441Z,10.18
2022-09-21T10:36:31.841Z,5.45
2022-09-21T10:38:36.503Z,6.72
2022-09-21T10:40:40.378Z,9.70
2022-09-21T10:42:43.702Z,8.02
2022-09-21T10:44:51.194Z,5.13
2022-09-21T10:49:03.305Z,3.65
2022-09-21T10:51:05.807Z,5.60
2022-09-21T10:53:11.091Z,7.40
2022-09-21T10:55:23.417Z,7.15
2022-09-21T10:57:28.245Z,13.68
2022-09-21T10:59:36.533Z,31.58
2022-09-21T11:01:46.128Z,33.78
2022-09-21T11:04:05.536Z,45.22
2022-09-21T11:06:35.500Z,45.70
2022-09-21T11:08:45.889Z,60.72
2022-09-21T11:11:41.290Z,61.88
2022-09-21T11:13:50.164Z,61.47
2022-09-21T11:16:05.127Z,43.65
2022-09-21T11:18:14.886Z,47.90
2022-09-21T11:20:33.937Z,35.85
2022-09-21T11:22:46.138Z,31.25
2022-09-21T11:25:00.912Z,35.33
2022-09-21T11:27:08.487Z,34.45
2022-09-21T11:29:18.053Z,38.22
2022-09-21T11:31:48.204Z,52.83
2022-09-21T11:34:36.403Z,79.10
2022-09-21T11:37:15.055Z,56.88
2022-09-21T11:39:36.840Z,42.97
2022-09-21T11:42:19.122Z,21.77
2022-09-21T11:45:00.592Z,23.02
2022-09-21T11:47:12.052Z,42.53
2022-09-21T11:49:19.784Z,37.58
2022-09-21T11:51:40.057Z,55.55
2022-09-21T11:54:15.528Z,71.88
2022-09-21T11:56:26.080Z,70.85
2022-09-21T11:58:40.175Z,66.53
2022-09-21T12:01:12.472Z,64.70
2022-09-21T12:03:53.163Z,61.50
2022-09-21T12:06:10.448Z,31.88
2022-09-21T12:08:26.303Z,19.45
2022-09-21T12:11:14.497Z,12.10
2022-09-21T12:13:29.047Z,12.18
2022-09-21T12:15:50.388Z,10.18
2022-09-21T12:18:04.155Z,8.55
2022-09-21T12:20:25.485Z,11.73
2022-09-21T12:22:39.251Z,12.05
2022-09-21T12:24:52.188Z,17.58
2022-09-21T12:26:59.752Z,17.20
2022-09-21T12:29:14.351Z,13.52
2022-09-21T12:31:24.081Z,10.48
2022-09-21T12:33:56.606Z,13.32
2022-09-21T12:36:18.282Z,10.00
2022-09-21T12:38:28.076Z,11.82
2022-09-21T12:40:51.879Z,10.57
2022-09-21T12:43:36.262Z,9.52
2022-09-21T12:46:00.486Z,6.53
2022-09-21T12:48:13.235Z,4.55
2022-09-21T12:50:44.598Z,5.38
2022-09-21T12:52:47.367Z,4.72
2022-09-21T12:54:58.711Z,2.42
2022-09-21T12:57:29.802Z,3.00
2022-09-21T12:59:58.384Z,2.38
2022-09-21T13:02:17.944Z,2.83
2022-09-21T13:04:35.851Z,4.05
2022-09-21T13:06:59.367Z,4.57
2022-09-21T13:09:10.059Z,16.13
2022-09-21T13:11:14.497Z,33.10
2022-09-21T13:13:29.852Z,40.17
2022-09-21T13:15:49.340Z,31.13
2022-09-21T13:18:03.070Z,11.35
2022-09-21T13:20:18.251Z,7.15
2022-09-21T13:22:20.579Z,18.80
2022-09-21T13:24:30.546Z,14.52
2022-09-21T13:26:51.768Z,12.25
2022-09-21T13:28:54.381Z,5.60
2022-09-21T13:31:40.428Z,3.70
2022-09-21T13:33:41.260Z,3.03
2022-09-21T13:36:04.284Z,3.05
2022-09-21T13:38:30.544Z,2.85
2022-09-21T13:40:35.609Z,2.55
2022-09-21T13:42:38.520Z,5.55
2022-09-21T13:44:44.297Z,5.38
2022-09-21T13:46:52.879Z,6.00
2022-09-21T13:48:59.619Z,6.35
2022-09-21T13:51:08.360Z,6.32
2022-09-21T13:53:22.671Z,7.32
2022-09-21T13:55:31.022Z,6.18
2022-09-21T13:57:48.611Z,4.18
2022-09-21T14:00:22.337Z,4.80
2022-09-21T14:02:36.010Z,6.47
2022-09-21T14:04:39.606Z,4.07
2022-09-21T14:06:49.823Z,4.03
2022-09-21T14:09:00.505Z,3.20
2022-09-21T14:11:20.900Z,3.30
2022-09-21T14:13:34.636Z,2.33
2022-09-21T14:15:39.988Z,1.65
2022-09-21T14:17:43.485Z,1.25
2022-09-21T14:19:45.652Z,1.00
2022-09-21T14:22:09.795Z,1.15
2022-09-21T14:24:38.861Z,1.17
2022-09-21T14:26:44.617Z,3.63
2022-09-21T14:28:52.410Z,1.52
2022-09-21T14:30:58.577Z,0.80
2022-09-21T14:33:00.898Z,2.15
2022-09-21T14:35:12.498Z,3.63
2022-09-21T14:37:39.631Z,7.22
2022-09-21T14:39:46.044Z,9.90
2022-09-21T14:41:53.432Z,15.40
2022-09-21T14:43:58.265Z,13.32
2022-09-21T14:46:25.806Z,39.22
2022-09-21T14:48:58.834Z,60.95
2022-09-21T14:51:31.649Z,64.40
2022-09-21T14:54:05.136Z,47.65
2022-09-21T14:56:33.746Z,49.22
2022-09-21T14:59:15.688Z,43.80
2022-09-21T15:01:21.052Z,46.63
2022-09-21T15:03:30.297Z,44.03
2022-09-21T15:05:40.852Z,44.67
2022-09-21T15:08:06.249Z,51.95
2022-09-21T15:10:58.912Z,30.80
2022-09-21T15:13:11.861Z,18.50
2022-09-21T15:15:40.862Z,18.33
2022-09-21T15:17:59.708Z,18.55
2022-09-21T15:20:17.011Z,26.25
2022-09-21T15:22:21.794Z,26.23
2022-09-21T15:24:30.029Z,43.13
2022-09-21T15:26:35.411Z,42.08
2022-09-21T15:29:08.514Z,31.95
2022-09-21T15:31:12.210Z,21.27
2022-09-21T15:33:15.167Z,14.75
2022-09-21T15:35:26.912Z,8.80
2022-09-21T15:37:29.842Z,7.50
2022-09-21T15:39:32.848Z,6.43
2022-09-21T15:41:45.316Z,6.18
2022-09-21T15:44:06.300Z,5.95
2022-09-21T15:46:12.377Z,6.40
2022-09-21T15:48:14.749Z,9.15
2022-09-21T15:50:20.319Z,7.90
2022-09-21T15:52:25.711Z,8.88
2022-09-21T15:54:42.733Z,10.25
2022-09-21T15:56:45.328Z,8.13
2022-09-21T15:58:50.238Z,7.00
2022-09-21T16:00:55.790Z,7.32
2022-09-21T16:03:06.911Z,13.95
2022-09-21T16:05:15.142Z,11.70
2022-09-21T16:07:33.897Z,14.20
2022-09-21T16:09:46.851Z,14.65
2022-09-21T16:11:49.131Z,14.73
2022-09-21T16:14:25.638Z,15.00
2022-09-21T16:16:28.164Z,20.60
2022-09-21T16:18:35.491Z,25.75
2022-09-21T16:20:45.449Z,38.92
2022-09-21T16:22:50.039Z,35.75
2022-09-21T16:24:55.527Z,57.83
2022-09-21T16:27:03.656Z,61.78
2022-09-21T16:29:12.298Z,58.90
2022-09-21T16:31:36.339Z,58.22
2022-09-21T16:34:06.744Z,47.60
2022-09-21T16:36:18.887Z,50.50
2022-09-21T16:38:23.645Z,46.97
2022-09-21T16:40:29.820Z,48.88
2022-09-21T16:42:35.683Z,51.85
2022-09-21T16:44:44.587Z,43.17
2022-09-21T16:46:53.941Z,37.20
2022-09-21T16:48:56.498Z,50.28
2022-09-21T16:51:04.372Z,52.83
2022-09-21T16:53:06.620Z,86.70
2022-09-21T16:55:08.902Z,132.07
2022-09-21T16:57:11.649Z,136.48
2022-09-21T16:59:23.351Z,149.45
2022-09-21T17:01:26.924Z,126.70
2022-09-21T17:03:31.770Z,134.63
2022-09-21T17:05:36.721Z,107.53
2022-09-21T17:07:39.154Z,87.07
2022-09-21T17:09:44.643Z,63.28
2022-09-21T17:11:47.161Z,62.78
2022-09-21T17:13:50.956Z,55.42
2022-09-21T17:15:53.903Z,45.63
2022-09-21T17:17:59.196Z,49.60
2022-09-21T17:20:07.412Z,45.58
2022-09-21T17:22:17.370Z,42.45
2022-09-21T17:24:45.839Z,37.83
2022-09-21T17:26:45.482Z,39.95
2022-09-21T17:28:48.237Z,38.28
2022-09-21T17:30:50.759Z,40.17
2022-09-21T17:32:53.478Z,36.75
2022-09-21T17:35:01.836Z,35.20
2022-09-21T17:37:04.562Z,33.97
2022-09-21T17:39:07.333Z,33.72
2022-09-21T17:41:38.947Z,29.13
2022-09-21T17:43:50.735Z,29.88
2022-09-21T17:46:04.530Z,31.45
2022-09-21T17:48:22.127Z,45.25
2022-09-21T17:50:27.454Z,48.25
2022-09-21T17:52:48.364Z,56.30
2022-09-21T17:54:53.125Z,45.20
2022-09-21T17:57:14.174Z,51.40
2022-09-21T17:59:34.127Z,41.08
2022-09-21T18:01:48.069Z,35.58
2022-09-21T18:03:50.645Z,36.28
2022-09-21T18:05:59.619Z,46.55
2022-09-21T18:08:02.934Z,33.50
2022-09-21T18:10:16.127Z,33.97
2022-09-21T18:12:27.086Z,34.25
2022-09-21T18:14:35.218Z,35.10
2022-09-21T18:17:14.904Z,28.85
2022-09-21T18:19:49.610Z,27.95
2022-09-21T18:22:02.738Z,29.08
2022-09-21T18:24:15.344Z,22.95
2022-09-21T18:26:26.565Z,23.45
2022-09-21T18:28:46.873Z,16.67
2022-09-21T18:31:11.083Z,17.27
2022-09-21T18:33:41.579Z,17.77
2022-09-21T18:35:53.789Z,27.40
2022-09-21T18:38:16.188Z,26.30
2022-09-21T18:40:25.754Z,31.30
2022-09-21T18:43:00.415Z,30.10
2022-09-21T18:45:06.872Z,21.88
2022-09-21T18:47:35.431Z,20.27
2022-09-21T18:49:55.843Z,27.92
2022-09-21T18:52:16.309Z,34.45
2022-09-21T18:54:21.682Z,36.33
2022-09-21T18:56:31.788Z,32.55
2022-09-21T18:58:35.071Z,30.23
2022-09-21T19:00:39.584Z,27.27
2022-09-21T19:02:59.020Z,29.60
2022-09-21T19:05:07.784Z,24.95
2022-09-21T19:07:40.627Z,22.20
2022-09-21T19:10:11.766Z,19.30
2022-09-21T19:12:32.715Z,18.40
2022-09-21T19:15:10.150Z,15.02
2022-09-21T19:17:52.835Z,18.88
2022-09-21T19:20:24.172Z,23.60
2022-09-21T19:22:55.937Z,25.60
2022-09-21T19:25:16.756Z,24.77
2022-09-21T19:27:25.960Z,22.77
2022-09-21T19:29:35.567Z,17.55
2022-09-21T19:31:37.903Z,16.20
2022-09-21T19:33:55.400Z,17.25
2022-09-21T19:36:00.761Z,14.98
2022-09-21T19:38:04.324Z,10.13
2022-09-21T19:40:08.754Z,10.15
2022-09-21T19:42:52.622Z,13.20
2022-09-21T19:45:14.779Z,23.45
2022-09-21T19:47:32.879Z,20.45
2022-09-21T19:49:57.053Z,25.98
2022-09-21T19:52:04.681Z,24.25
2022-09-21T19:54:39.662Z,22.98
2022-09-21T19:57:07.180Z,19.60
2022-09-21T19:59:44.437Z,22.00
2022-09-21T20:02:05.956Z,19.27
2022-09-21T20:04:13.837Z,19.40
2022-09-21T20:06:44.426Z,22.40
2022-09-21T20:09:20.104Z,19.77
2022-09-21T20:11:37.433Z,16.63
2022-09-21T20:13:42.761Z,17.25
2022-09-21T20:16:21.830Z,15.02
2022-09-21T20:18:42.496Z,17.10
2022-09-21T20:20:44.872Z,13.10
2022-09-21T20:22:47.680Z,16.27
2022-09-21T20:25:19.312Z,18.58
2022-09-21T20:27:42.449Z,15.77
2022-09-21T20:29:46.777Z,15.20
2022-09-21T20:31:52.239Z,16.20
2022-09-21T20:34:34.881Z,14.45
2022-09-21T20:36:37.851Z,13.32
2022-09-21T20:38:42.740Z,13.20
2022-09-21T20:40:45.799Z,13.98
2022-09-21T20:42:48.309Z,11.27
2022-09-21T20:44:56.371Z,14.15
2022-09-21T20:46:58.778Z,10.88
2022-09-21T20:49:05.058Z,11.50
2022-09-21T20:51:07.743Z,14.00
2022-09-21T20:53:10.602Z,9.88
2022-09-21T20:55:17.796Z,10.50
2022-09-21T20:57:23.649Z,11.27
2022-09-21T20:59:27.801Z,10.35
2022-09-21T21:02:08.151Z,12.55
2022-09-21T21:04:10.749Z,8.70
2022-09-21T21:06:17.862Z,10.18
2022-09-21T21:08:20.437Z,9.18
2022-09-21T21:10:23.178Z,9.70
2022-09-21T21:12:26.221Z,8.18
2022-09-21T21:14:31.569Z,10.90
2022-09-21T21:16:34.331Z,7.13
2022-09-21T21:18:39.984Z,11.77
2022-09-21T21:20:42.544Z,8.48
2022-09-21T21:22:54.742Z,9.88
2022-09-21T21:24:57.363Z,9.95
2022-09-21T21:27:03.443Z,12.02
2022-09-21T21:29:06.173Z,14.48
2022-09-21T21:31:08.708Z,34.65
2022-09-21T21:33:14.522Z,33.58
2022-09-21T21:35:16.700Z,37.47
2022-09-21T21:37:21.208Z,41.67
2022-09-21T21:39:23.543Z,60.65
2022-09-21T21:41:26.168Z,73.20
2022-09-21T21:43:33.496Z,121.32
2022-09-21T21:45:36.011Z,358.80
2022-09-21T21:47:41.115Z,387.23
2022-09-21T21:49:45.931Z,356.23
2022-09-21T21:51:49.696Z,259.75
2022-09-21T21:53:52.071Z,217.15
2022-09-21T21:56:12.903Z,181.88
2022-09-21T21:58:15.529Z,156.48
2022-09-21T22:00:18.201Z,141.73
2022-09-21T22:02:21.070Z,116.13
2022-09-21T22:04:27.668Z,107.93
2022-09-21T22:06:32.340Z,83.20
2022-09-21T22:08:35.613Z,82.00
2022-09-21T22:10:38.098Z,72.30
2022-09-21T22:12:40.137Z,71.15
2022-09-21T22:14:42.379Z,57.10
2022-09-21T22:16:44.374Z,40.35
2022-09-21T22:18:47.105Z,34.63
2022-09-21T22:20:52.157Z,34.17
2022-09-21T22:22:54.637Z,28.80
2022-09-21T22:24:59.477Z,27.25
2022-09-21T22:27:01.553Z,33.20
2022-09-21T22:29:06.346Z,26.27
2022-09-21T22:31:12.307Z,26.80
2022-09-21T22:33:14.742Z,25.25
2022-09-21T22:35:17.221Z,26.58
2022-09-21T22:37:19.643Z,39.22
2022-09-21T22:39:21.929Z,43.58
2022-09-21T22:41:30.045Z,62.50
2022-09-21T22:43:32.515Z,81.90
2022-09-21T22:45:34.701Z,77.75
2022-09-21T22:47:37.065Z,67.28
2022-09-21T22:49:39.328Z,51.42
2022-09-21T22:51:41.747Z,37.22
2022-09-21T22:53:44.302Z,20.10
2022-09-21T22:55:46.586Z,25.27
2022-09-21T22:57:49.801Z,34.97
2022-09-21T22:59:52.275Z,49.28
2022-09-21T23:01:54.904Z,46.20
2022-09-21T23:03:59.488Z,84.05
2022-09-21T23:06:01.927Z,98.75
2022-09-21T23:08:05.443Z,104.18
2022-09-21T23:10:08.795Z,111.65
2022-09-21T23:12:10.873Z,106.78
2022-09-21T23:14:14.000Z,91.70
2022-09-21T23:16:17.426Z,90.05
2022-09-21T23:18:19.701Z,78.32
2022-09-21T23:20:21.954Z,70.10
2022-09-21T23:22:26.880Z,60.63
2022-09-21T23:24:30.071Z,54.08
2022-09-21T23:26:34.149Z,52.40
2022-09-21T23:28:37.678Z,59.63
2022-09-21T23:30:39.732Z,62.35
2022-09-21T23:32:42.232Z,63.45
2022-09-21T23:34:44.773Z,57.78
2022-09-21T23:36:46.963Z,54.42
2022-09-21T23:38:50.215Z,51.03
2022-09-21T23:40:55.818Z,45.35
2022-09-21T23:42:59.479Z,44.45
2022-09-21T23:45:01.703Z,44.17
2022-09-21T23:47:03.999Z,40.97
2022-09-21T23:49:07.123Z,38.40
2022-09-21T23:51:10.093Z,34.47
2022-09-21T23:53:13.180Z,30.35
2022-09-21T23:55:15.597Z,31.75
2022-09-21T23:57:17.750Z,27.40
2022-09-21T23:59:20.097Z,28.73
